Time;durP1;ratioP1;P1;durP2;ratioP2;P2;SDS_P1;SDS_P2;PMS_P1;PMS_P2;Temp;Humidity;BMP_temperature;BMP_pressure;BME280_temperature;BME280_humidity;BME280_pressure;Samples;Min_cycle;Max_cycle;Signal;HPM_P1;HPM_P2
2022/03/24 00:00:39;;;;;;;33.77;18.80;;;4.10;79.60;;;;;;5065979;28;20880;-46
2022/03/24 00:03:07;;;;;;;32.40;16.67;;;4.20;78.90;;;;;;5057754;28;20648;-47
2022/03/24 00:05:34;;;;;;;25.80;16.27;;;4.30;78.30;;;;;;5064905;28;20477;-47
2022/03/24 00:08:01;;;;;;;33.10;17.57;;;4.40;78.60;;;;;;5067153;28;20471;-47
2022/03/24 00:10:29;;;;;;;32.60;16.77;;;4.40;78.60;;;;;;5064898;28;20483;-46
2022/03/24 00:12:56;;;;;;;33.90;17.83;;;4.40;78.50;;;;;;5064326;28;21117;-46
2022/03/24 00:15:24;;;;;;;34.70;15.80;;;4.50;77.90;;;;;;5063471;28;20509;-46
2022/03/24 00:17:51;;;;;;;27.50;16.73;;;4.50;78.10;;;;;;5067373;28;20773;-46
2022/03/24 00:20:17;;;;;;;37.50;17.50;;;4.50;77.70;;;;;;5066228;28;20487;-46
2022/03/24 00:22:44;;;;;;;36.07;17.17;;;4.40;76.50;;;;;;5064997;28;20483;-46
2022/03/24 00:25:11;;;;;;;27.47;16.23;;;4.40;77.00;;;;;;5063523;28;20943;-46
2022/03/24 00:27:39;;;;;;;27.00;17.90;;;4.40;77.60;;;;;;5066921;28;20493;-46
2022/03/24 00:30:08;;;;;;;36.73;17.57;;;4.40;78.30;;;;;;5063975;28;20699;-46
2022/03/24 00:32:36;;;;;;;29.77;18.07;;;4.40;78.40;;;;;;5064959;28;20508;-46
2022/03/24 00:35:03;;;;;;;28.53;16.47;;;4.40;77.80;;;;;;5060332;28;20580;-46
2022/03/24 00:37:31;;;;;;;38.10;18.90;;;4.40;77.40;;;;;;5065471;28;21058;-48
2022/03/24 00:40:00;;;;;;;31.97;16.83;;;4.40;77.00;;;;;;5065536;28;20485;-46
2022/03/24 00:42:27;;;;;;;33.20;16.70;;;4.40;77.40;;;;;;5054617;28;20476;-46
2022/03/24 00:44:53;;;;;;;43.93;19.87;;;4.40;77.10;;;;;;5062158;28;20848;-46
2022/03/24 00:47:20;;;;;;;25.73;16.33;;;4.40;76.80;;;;;;5066061;28;20531;-47
2022/03/24 00:49:48;;;;;;;35.20;17.77;;;4.30;77.10;;;;;;5065391;28;20484;-46
2022/03/24 00:52:15;;;;;;;46.73;19.80;;;4.30;77.80;;;;;;5065010;28;20479;-52
2022/03/24 00:54:42;;;;;;;32.13;17.80;;;4.30;77.70;;;;;;5063515;28;20821;-46
2022/03/24 00:57:09;;;;;;;37.53;16.30;;;4.20;77.70;;;;;;5065746;28;20479;-46
2022/03/24 00:59:36;;;;;;;32.70;18.40;;;4.10;77.70;;;;;;5066561;28;20639;-46
2022/03/24 01:02:06;;;;;;;27.70;16.97;;;4.10;77.10;;;;;;5062094;28;20474;-46
2022/03/24 01:04:32;;;;;;;24.27;16.20;;;4.00;77.40;;;;;;5063488;28;20489;-46
2022/03/24 01:07:00;;;;;;;26.13;16.03;;;4.00;77.50;;;;;;5065052;28;20477;-46
2022/03/24 01:09:27;;;;;;;32.33;15.77;;;4.00;77.70;;;;;;5061611;28;21171;-45
2022/03/24 01:11:53;;;;;;;30.57;17.17;;;4.00;77.20;;;;;;5064675;28;20484;-45
2022/03/24 01:14:22;;;;;;;40.17;17.90;;;4.00;76.80;;;;;;5064764;28;20513;-46
2022/03/24 01:16:51;;;;;;;30.83;16.57;;;4.00;77.00;;;;;;5063868;28;20477;-46
2022/03/24 01:19:17;;;;;;;37.50;18.50;;;4.00;77.10;;;;;;5060381;28;20536;-46
2022/03/24 01:21:44;;;;;;;38.53;18.87;;;4.00;76.60;;;;;;5061724;28;20475;-45
2022/03/24 01:24:12;;;;;;;31.13;17.20;;;3.90;76.30;;;;;;5062866;28;20565;-45
2022/03/24 01:26:38;;;;;;;33.30;17.87;;;3.90;75.70;;;;;;5065900;28;20913;-45
2022/03/24 01:29:05;;;;;;;30.57;17.20;;;3.90;75.70;;;;;;5063803;28;20488;-45
2022/03/24 01:31:33;;;;;;;32.37;18.53;;;3.90;76.00;;;;;;5065907;28;20492;-45
2022/03/24 01:33:59;;;;;;;39.10;19.20;;;3.90;76.50;;;;;;5064071;28;21132;-45
2022/03/24 01:36:26;;;;;;;36.33;19.07;;;3.90;76.70;;;;;;5064846;28;20633;-45
2022/03/24 01:38:53;;;;;;;28.37;18.00;;;3.80;76.60;;;;;;5061131;28;20472;-45
2022/03/24 01:41:21;;;;;;;32.00;18.67;;;3.60;76.90;;;;;;5062041;28;20967;-45
2022/03/24 01:43:48;;;;;;;32.23;18.90;;;3.60;76.60;;;;;;5053939;28;20512;-45
2022/03/24 01:46:19;;;;;;;29.17;17.10;;;3.50;76.60;;;;;;5062980;28;20537;-45
2022/03/24 01:48:46;;;;;;;29.87;17.93;;;3.40;77.80;;;;;;5054619;28;20493;-45
2022/03/24 01:51:13;;;;;;;31.80;18.43;;;3.40;78.00;;;;;;5065911;28;20493;-45
2022/03/24 01:53:40;;;;;;;44.33;19.40;;;3.30;77.90;;;;;;5040081;28;21230;-45
2022/03/24 01:56:07;;;;;;;34.43;18.63;;;3.30;77.90;;;;;;5060010;28;20489;-45
2022/03/24 01:58:38;;;;;;;32.17;19.80;;;3.30;78.20;;;;;;5036658;28;20994;-45
2022/03/24 02:01:28;;;;;;;30.57;17.97;;;3.10;78.30;;;;;;5026788;28;20489;-45
2022/03/24 02:03:56;;;;;;;28.90;18.43;;;3.00;79.40;;;;;;5009943;28;21682;-45
2022/03/24 02:06:23;;;;;;;47.43;20.37;;;2.90;80.50;;;;;;4967669;28;20489;-45
2022/03/24 02:08:50;;;;;;;41.73;19.47;;;2.80;81.50;;;;;;5022209;28;20473;-46
2022/03/24 02:11:17;;;;;;;36.03;18.30;;;2.80;81.40;;;;;;5032574;28;20518;-45
2022/03/24 02:13:45;;;;;;;27.93;16.33;;;2.90;80.80;;;;;;5013832;28;20499;-45
2022/03/24 02:16:12;;;;;;;37.13;18.47;;;3.00;79.70;;;;;;5057069;28;20490;-45
2022/03/24 02:18:38;;;;;;;38.80;19.40;;;2.80;79.20;;;;;;5021952;28;20589;-45
2022/03/24 02:21:05;;;;;;;29.60;16.20;;;2.80;79.60;;;;;;5028276;28;20497;-45
2022/03/24 02:23:33;;;;;;;55.03;21.80;;;2.80;79.30;;;;;;5039487;28;20519;-45
2022/03/24 02:26:02;;;;;;;30.37;17.87;;;2.70;79.50;;;;;;5022829;28;20889;-45
2022/03/24 02:28:29;;;;;;;31.70;19.50;;;2.70;79.70;;;;;;5045771;28;20481;-45
2022/03/24 02:30:56;;;;;;;35.87;18.60;;;2.80;79.50;;;;;;5017833;28;20505;-46
2022/03/24 02:33:23;;;;;;;27.60;18.00;;;2.80;78.90;;;;;;5011283;28;20481;-46
2022/03/24 02:35:51;;;;;;;33.37;18.50;;;2.80;78.90;;;;;;5040839;28;20493;-46
2022/03/24 02:38:19;;;;;;;36.57;19.03;;;2.80;79.20;;;;;;5047200;28;20524;-46
2022/03/24 02:40:49;;;;;;;35.67;18.30;;;2.80;78.90;;;;;;5049208;28;20840;-47
2022/03/24 02:43:18;;;;;;;31.33;18.47;;;2.90;79.00;;;;;;5051849;28;21115;-47
2022/03/24 02:45:46;;;;;;;36.63;22.30;;;2.80;79.00;;;;;;5038079;28;20513;-46
2022/03/24 02:48:13;;;;;;;30.23;18.10;;;2.80;79.00;;;;;;5042028;28;20511;-47
2022/03/24 02:50:40;;;;;;;34.13;17.67;;;2.90;78.70;;;;;;5057156;28;20489;-46
2022/03/24 02:53:07;;;;;;;40.47;19.50;;;2.90;78.10;;;;;;5044368;28;21067;-47
2022/03/24 02:55:33;;;;;;;34.33;16.80;;;2.90;78.00;;;;;;5042128;28;20469;-46
2022/03/24 02:58:02;;;;;;;33.10;17.03;;;2.90;77.90;;;;;;5058966;28;20610;-46
2022/03/24 03:00:29;;;;;;;34.87;18.00;;;2.80;78.20;;;;;;5035388;28;20493;-46
2022/03/24 03:02:56;;;;;;;33.80;19.80;;;2.60;78.80;;;;;;5014422;28;20486;-46
2022/03/24 03:05:23;;;;;;;30.90;16.40;;;2.60;79.20;;;;;;5037730;28;20480;-46
2022/03/24 03:07:51;;;;;;;28.43;16.93;;;2.60;78.80;;;;;;5012259;28;20579;-46
2022/03/24 03:10:18;;;;;;;27.90;16.27;;;2.60;78.60;;;;;;5040764;28;20474;-46
2022/03/24 03:12:46;;;;;;;25.83;17.33;;;2.50;79.30;;;;;;5034996;28;20485;-46
2022/03/24 03:15:14;;;;;;;36.67;18.40;;;2.40;80.30;;;;;;5035432;28;20476;-46
2022/03/24 03:17:41;;;;;;;29.70;17.30;;;2.40;80.90;;;;;;5040438;28;20991;-46
2022/03/24 03:20:10;;;;;;;57.47;19.77;;;2.40;80.40;;;;;;5011657;28;20489;-46
2022/03/24 03:22:37;;;;;;;31.27;17.63;;;2.50;80.30;;;;;;5029243;28;20852;-46
2022/03/24 03:25:05;;;;;;;37.87;19.70;;;2.50;80.10;;;;;;5008209;28;20479;-46
2022/03/24 03:27:32;;;;;;;36.97;18.60;;;2.50;80.20;;;;;;5033631;28;20858;-46
2022/03/24 03:29:59;;;;;;;30.07;17.60;;;2.50;79.60;;;;;;5021409;28;21437;-45
2022/03/24 03:32:27;;;;;;;29.13;16.70;;;2.50;79.10;;;;;;5014218;28;20492;-46
2022/03/24 03:34:54;;;;;;;34.23;18.60;;;2.40;79.10;;;;;;5007750;28;20473;-45
2022/03/24 03:37:20;;;;;;;35.43;19.20;;;2.40;78.50;;;;;;5061201;28;20490;-46
2022/03/24 03:39:49;;;;;;;37.00;18.90;;;2.40;78.60;;;;;;5037802;28;20502;-46
2022/03/24 03:42:17;;;;;;;37.03;18.43;;;2.40;79.00;;;;;;4979693;28;21183;-45
2022/03/24 03:44:44;;;;;;;29.60;17.27;;;2.40;78.50;;;;;;5014538;28;20486;-45
2022/03/24 03:47:11;;;;;;;31.03;18.20;;;2.50;78.40;;;;;;5051737;28;20977;-51
2022/03/24 03:49:39;;;;;;;42.03;18.60;;;2.50;78.20;;;;;;5060597;28;20484;-45
2022/03/24 03:52:06;;;;;;;29.43;18.27;;;2.50;77.80;;;;;;5069841;28;20484;-46
2022/03/24 03:54:33;;;;;;;27.13;19.20;;;2.50;77.60;;;;;;5049631;28;20968;-45
2022/03/24 03:57:00;;;;;;;40.83;18.97;;;2.50;78.30;;;;;;5056905;28;20485;-45
2022/03/24 03:59:26;;;;;;;35.20;19.40;;;2.50;78.40;;;;;;5049030;28;20487;-45
2022/03/24 04:01:55;;;;;;;33.80;18.17;;;2.50;78.30;;;;;;5056103;28;20486;-46
2022/03/24 04:04:21;;;;;;;36.13;17.60;;;2.40;78.10;;;;;;5047609;28;21022;-46
2022/03/24 04:06:49;;;;;;;37.30;18.00;;;2.40;77.80;;;;;;5065175;28;20473;-45
2022/03/24 04:09:16;;;;;;;36.20;18.73;;;2.30;77.60;;;;;;5058104;28;21055;-46
2022/03/24 04:11:43;;;;;;;35.63;17.90;;;2.20;78.30;;;;;;5050766;28;20493;-46
2022/03/24 04:14:10;;;;;;;31.00;18.20;;;2.20;78.20;;;;;;5054673;28;20481;-46
2022/03/24 04:16:37;;;;;;;28.83;17.10;;;2.20;78.30;;;;;;5031541;28;20741;-45
2022/03/24 04:19:07;;;;;;;42.67;20.27;;;2.10;79.20;;;;;;5046698;28;21193;-50
2022/03/24 04:21:34;;;;;;;36.23;18.90;;;2.10;79.70;;;;;;5046426;28;20511;-45
2022/03/24 04:24:03;;;;;;;31.30;18.13;;;2.00;80.80;;;;;;5054987;28;20477;-45
2022/03/24 04:26:30;;;;;;;42.47;21.03;;;2.00;81.00;;;;;;5035252;28;20524;-45
2022/03/24 04:28:57;;;;;;;29.90;18.07;;;2.00;80.50;;;;;;5032381;28;20516;-46
2022/03/24 04:31:24;;;;;;;30.50;17.90;;;2.00;80.00;;;;;;5035104;28;20490;-46
2022/03/24 04:33:51;;;;;;;30.20;16.83;;;2.00;79.60;;;;;;5050967;28;20481;-45
2022/03/24 04:36:18;;;;;;;28.63;16.00;;;2.00;79.00;;;;;;5050060;28;20575;-45
2022/03/24 04:38:44;;;;;;;35.77;18.53;;;2.00;78.60;;;;;;5040155;28;20480;-45
2022/03/24 04:41:13;;;;;;;28.93;17.50;;;1.80;79.40;;;;;;5049918;28;20588;-45
2022/03/24 04:43:39;;;;;;;38.33;19.70;;;1.70;81.00;;;;;;5060053;28;20985;-45
2022/03/24 04:46:06;;;;;;;30.13;17.67;;;1.70;81.30;;;;;;5035608;28;20922;-46
2022/03/24 04:48:36;;;;;;;31.57;17.10;;;1.70;80.50;;;;;;5042243;28;20501;-45
2022/03/24 04:51:04;;;;;;;33.20;19.03;;;1.70;80.20;;;;;;5000641;28;20477;-45
2022/03/24 04:53:32;;;;;;;28.57;17.13;;;1.80;79.60;;;;;;5035696;28;20554;-45
2022/03/24 04:55:59;;;;;;;26.07;16.20;;;1.80;79.00;;;;;;5043887;28;20495;-45
2022/03/24 04:58:27;;;;;;;33.30;16.10;;;1.80;78.60;;;;;;5004243;28;20907;-46
2022/03/24 05:00:54;;;;;;;33.37;17.90;;;1.80;79.30;;;;;;5032833;28;20602;-44
2022/03/24 05:03:21;;;;;;;28.47;16.67;;;1.80;79.80;;;;;;5022414;28;20504;-45
2022/03/24 05:05:48;;;;;;;27.80;16.87;;;1.80;79.80;;;;;;4966749;28;20517;-45
2022/03/24 05:08:15;;;;;;;31.07;19.50;;;1.90;79.90;;;;;;5001019;28;20491;-45
2022/03/24 05:10:42;;;;;;;34.53;18.70;;;1.80;79.50;;;;;;4998967;28;20483;-45
2022/03/24 05:13:08;;;;;;;29.37;16.33;;;1.80;79.40;;;;;;4965928;28;20570;-45
2022/03/24 05:15:36;;;;;;;49.57;17.57;;;1.80;79.20;;;;;;4982552;28;21023;-45
2022/03/24 05:18:04;;;;;;;32.57;17.93;;;1.80;79.00;;;;;;4988593;28;20549;-45
2022/03/24 05:20:31;;;;;;;33.97;17.43;;;1.70;79.50;;;;;;5012149;28;21025;-45
2022/03/24 05:22:58;;;;;;;31.07;18.10;;;1.60;80.50;;;;;;5029607;28;20486;-45
2022/03/24 05:25:26;;;;;;;31.80;17.53;;;1.60;80.60;;;;;;5007203;28;20490;-45
2022/03/24 05:27:52;;;;;;;31.53;18.23;;;1.60;80.20;;;;;;5007323;28;20515;-45
2022/03/24 05:30:19;;;;;;;29.80;17.83;;;1.70;79.80;;;;;;5012129;28;20487;-45
2022/03/24 05:32:47;;;;;;;30.33;17.30;;;1.70;79.20;;;;;;4985070;28;20553;-45
2022/03/24 05:35:14;;;;;;;31.80;16.30;;;1.80;79.00;;;;;;5018633;28;21448;-45
2022/03/24 05:37:41;;;;;;;54.40;19.00;;;1.80;78.40;;;;;;5018765;28;20493;-45
2022/03/24 05:40:09;;;;;;;32.67;18.90;;;1.80;79.00;;;;;;5044364;28;21004;-45
2022/03/24 05:42:36;;;;;;;32.40;16.60;;;1.80;79.30;;;;;;5013432;28;20483;-45
2022/03/24 05:45:04;;;;;;;34.47;17.73;;;1.80;79.10;;;;;;5015852;28;20496;-45
2022/03/24 05:47:31;;;;;;;27.90;17.10;;;1.80;78.90;;;;;;5032626;28;20520;-46
2022/03/24 05:49:59;;;;;;;29.87;16.87;;;1.70;78.60;;;;;;5013327;28;20504;-45
2022/03/24 05:52:26;;;;;;;37.00;17.43;;;1.40;79.60;;;;;;5037009;28;20482;-45
2022/03/24 05:54:53;;;;;;;34.17;18.67;;;1.30;80.40;;;;;;5034307;28;20499;-45
2022/03/24 05:57:19;;;;;;;32.03;17.47;;;1.40;80.40;;;;;;5044281;28;20495;-45
2022/03/24 05:59:46;;;;;;;35.83;17.70;;;1.50;80.60;;;;;;5023098;28;20488;-45
2022/03/24 06:02:14;;;;;;;36.40;15.93;;;1.50;80.90;;;;;;5001715;28;20487;-45
2022/03/24 06:04:42;;;;;;;29.60;16.60;;;1.50;81.50;;;;;;4995318;28;20589;-45
2022/03/24 06:07:10;;;;;;;43.93;19.07;;;1.50;82.30;;;;;;5033440;28;20497;-46
2022/03/24 06:09:37;;;;;;;27.83;17.57;;;1.50;82.50;;;;;;5043249;28;20483;-46
2022/03/24 06:12:06;;;;;;;41.97;21.00;;;1.50;82.90;;;;;;5041288;28;20477;-46
2022/03/24 06:14:32;;;;;;;36.83;18.53;;;1.60;82.70;;;;;;5021708;28;20518;-45
2022/03/24 06:16:59;;;;;;;28.70;17.03;;;1.80;82.10;;;;;;4970420;28;20492;-46
2022/03/24 06:19:26;;;;;;;39.60;18.07;;;1.80;81.20;;;;;;5021324;28;20483;-46
2022/03/24 06:21:53;;;;;;;36.50;17.17;;;1.90;80.70;;;;;;5026224;28;20492;-46
2022/03/24 06:24:21;;;;;;;30.40;18.30;;;1.90;80.80;;;;;;4983968;28;20533;-45
2022/03/24 06:26:48;;;;;;;32.33;19.43;;;1.90;80.80;;;;;;4992359;28;20486;-45
2022/03/24 06:29:15;;;;;;;37.27;19.90;;;2.10;81.60;;;;;;4994371;28;20565;-46
2022/03/24 06:31:42;;;;;;;44.07;23.13;;;2.60;82.80;;;;;;5005156;28;20546;-46
2022/03/24 06:34:10;;;;;;;39.70;23.27;;;3.20;82.50;;;;;;4994269;28;20489;-46
2022/03/24 06:36:37;;;;;;;44.77;23.63;;;4.40;81.30;;;;;;5044856;28;20485;-46
2022/03/24 06:39:04;;;;;;;40.57;22.33;;;4.60;81.20;;;;;;5016361;28;20526;-46
2022/03/24 06:41:33;;;;;;;34.73;20.30;;;6.50;78.30;;;;;;5017584;28;20498;-46
2022/03/24 06:44:00;;;;;;;47.57;20.83;;;7.40;76.60;;;;;;4972017;28;20987;-47
2022/03/24 06:46:27;;;;;;;38.07;20.73;;;7.50;76.80;;;;;;5023289;28;20505;-46
2022/03/24 06:48:55;;;;;;;30.03;20.60;;;8.40;74.10;;;;;;5041350;28;20514;-47
2022/03/24 06:51:23;;;;;;;41.90;20.70;;;9.80;69.20;;;;;;5004573;28;20516;-47
2022/03/24 06:53:50;;;;;;;34.30;22.47;;;10.30;68.00;;;;;;5045934;28;20507;-48
2022/03/24 06:56:17;;;;;;;33.90;21.70;;;;;;;;;;5019683;28;20983;-46
2022/03/24 06:58:45;;;;;;;30.77;21.00;;;11.10;65.90;;;;;;5015471;28;20845;-47
2022/03/24 07:01:12;;;;;;;32.23;21.03;;;11.80;66.30;;;;;;5038108;28;20492;-47
2022/03/24 07:03:39;;;;;;;31.23;21.63;;;13.20;64.20;;;;;;5006026;28;21267;-46
2022/03/24 07:06:05;;;;;;;31.30;21.53;;;13.10;64.80;;;;;;5031165;28;20499;-46
2022/03/24 07:08:32;;;;;;;38.83;21.60;;;13.80;64.80;;;;;;5009003;28;20504;-46
2022/03/24 07:10:59;;;;;;;27.30;19.17;;;15.00;62.10;;;;;;5017326;28;20484;-46
2022/03/24 07:13:26;;;;;;;37.83;23.20;;;15.00;62.70;;;;;;5050252;28;20483;-46
2022/03/24 07:15:54;;;;;;;32.10;22.10;;;15.60;61.50;;;;;;5031809;28;20497;-46
2022/03/24 07:18:21;;;;;;;29.50;21.50;;;16.10;59.10;;;;;;5028848;28;20493;-46
2022/03/24 07:20:49;;;;;;;34.70;22.17;;;16.20;58.80;;;;;;4982918;28;20497;-46
2022/03/24 07:23:15;;;;;;;36.80;22.53;;;16.50;59.30;;;;;;5013914;28;20605;-47
2022/03/24 07:25:42;;;;;;;34.83;22.23;;;16.90;60.20;;;;;;5022000;28;20483;-47
2022/03/24 07:28:11;;;;;;;32.20;22.80;;;16.90;60.80;;;;;;5018960;28;20541;-47
2022/03/24 07:30:38;;;;;;;32.20;23.23;;;17.30;59.80;;;;;;4985106;28;20488;-49
2022/03/24 07:33:09;;;;;;;36.80;24.40;;;17.90;59.20;;;;;;5036296;28;20497;-47
2022/03/24 07:35:36;;;;;;;32.47;23.10;;;18.00;59.00;;;;;;5004553;28;20509;-47
2022/03/24 07:38:03;;;;;;;33.07;22.83;;;18.40;58.80;;;;;;5016264;28;20499;-47
2022/03/24 07:40:30;;;;;;;33.90;24.10;;;18.60;58.00;;;;;;5016345;28;21491;-47
2022/03/24 07:42:58;;;;;;;31.87;22.40;;;18.70;57.80;;;;;;5036219;28;20504;-47
2022/03/24 07:45:26;;;;;;;32.03;23.60;;;18.70;58.20;;;;;;5022413;28;20493;-47
2022/03/24 07:48:15;;;;;;;49.13;24.67;;;18.50;57.50;;;;;;4999593;28;20513;-48
2022/03/24 07:50:44;;;;;;;30.57;23.00;;;18.40;57.80;;;;;;4988112;28;20502;-47
2022/03/24 07:54:00;;;;;;;32.70;21.80;;;17.80;58.40;;;;;;5040213;28;20502;-48
2022/03/24 07:56:28;;;;;;;31.93;23.47;;;17.60;58.70;;;;;;4984229;28;21082;-48
2022/03/24 07:58:55;;;;;;;31.53;23.30;;;17.60;59.10;;;;;;5025248;28;20490;-47
2022/03/24 08:01:27;;;;;;;33.00;23.40;;;17.50;58.90;;;;;;5007961;28;20498;-47
2022/03/24 08:03:56;;;;;;;36.77;23.77;;;17.50;58.90;;;;;;5010441;28;20538;-48
2022/03/24 08:06:23;;;;;;;35.43;25.53;;;17.50;59.80;;;;;;5023371;28;20482;-48
2022/03/24 08:08:50;;;;;;;53.30;27.83;;;17.50;59.60;;;;;;5033167;28;20490;-47
2022/03/24 08:11:17;;;;;;;34.30;24.10;;;17.50;60.10;;;;;;5023431;28;20486;-48
2022/03/24 08:13:47;;;;;;;36.00;21.90;;;17.40;59.60;;;;;;5034869;28;20490;-47
2022/03/24 08:16:14;;;;;;;51.10;26.73;;;17.40;59.80;;;;;;5025888;28;20498;-50
2022/03/24 08:18:41;;;;;;;42.73;25.90;;;17.40;59.70;;;;;;5042356;28;20479;-47
2022/03/24 08:21:09;;;;;;;36.40;24.07;;;17.40;59.70;;;;;;5037319;28;20495;-48
2022/03/24 08:23:35;;;;;;;37.73;25.70;;;17.50;59.70;;;;;;5030949;28;21074;-47
2022/03/24 08:26:02;;;;;;;37.40;25.10;;;17.50;60.10;;;;;;5036138;28;20479;-47
2022/03/24 08:28:29;;;;;;;35.10;23.93;;;17.50;61.30;;;;;;5049465;28;20500;-47
2022/03/24 08:30:56;;;;;;;54.13;27.00;;;17.60;61.60;;;;;;5002214;28;20503;-48
2022/03/24 08:33:22;;;;;;;39.53;26.43;;;17.70;60.70;;;;;;5024361;28;20509;-48
2022/03/24 08:35:49;;;;;;;39.23;25.03;;;17.70;61.40;;;;;;4994035;28;20484;-48
2022/03/24 08:38:17;;;;;;;37.23;23.40;;;17.80;60.90;;;;;;5032757;28;20471;-48
2022/03/24 08:40:44;;;;;;;46.50;26.00;;;17.90;60.70;;;;;;5010248;28;20489;-49
2022/03/24 08:43:11;;;;;;;42.73;25.27;;;18.10;59.60;;;;;;5011025;28;20475;-48
2022/03/24 08:45:38;;;;;;;48.10;25.60;;;18.20;59.40;;;;;;5003855;28;20476;-48
2022/03/24 08:48:05;;;;;;;41.40;25.30;;;18.20;59.60;;;;;;4988424;28;20480;-49
2022/03/24 08:50:32;;;;;;;41.60;23.90;;;18.30;59.60;;;;;;4995599;28;20585;-48
2022/03/24 08:52:59;;;;;;;54.13;26.00;;;18.70;61.10;;;;;;4992080;28;20482;-48
2022/03/24 08:55:27;;;;;;;37.50;24.60;;;18.90;60.10;;;;;;5034821;28;20998;-48
2022/03/24 08:57:54;;;;;;;42.40;25.90;;;18.90;60.60;;;;;;5033789;28;20493;-48
2022/03/24 09:00:23;;;;;;;40.00;24.77;;;19.20;61.00;;;;;;5022723;28;20493;-48
2022/03/24 09:02:53;;;;;;;40.20;26.50;;;19.30;61.80;;;;;;5021282;28;20490;-48
2022/03/24 09:05:20;;;;;;;42.47;26.60;;;19.50;60.60;;;;;;4975575;28;20918;-49
2022/03/24 09:07:49;;;;;;;46.40;23.83;;;19.70;60.00;;;;;;5006523;28;20480;-48
2022/03/24 09:10:16;;;;;;;40.20;25.43;;;19.90;61.00;;;;;;5006235;28;20498;-48
2022/03/24 09:12:45;;;;;;;36.20;27.03;;;20.00;61.20;;;;;;4992973;28;20484;-49
2022/03/24 09:15:13;;;;;;;52.10;26.83;;;;;;;;;;4971651;28;20506;-48
2022/03/24 09:17:40;;;;;;;50.43;26.13;;;20.40;61.40;;;;;;4992585;28;20482;-48
2022/03/24 09:20:10;;;;;;;59.57;27.87;;;20.50;61.10;;;;;;5022764;28;20510;-48
2022/03/24 09:22:37;;;;;;;61.17;28.70;;;20.70;60.50;;;;;;5001584;28;20507;-49
2022/03/24 09:25:05;;;;;;;55.20;27.47;;;20.90;60.80;;;;;;5028181;28;20583;-49
2022/03/24 09:27:32;;;;;;;51.83;28.17;;;21.00;59.90;;;;;;5035461;28;20475;-51
2022/03/24 09:30:00;;;;;;;42.33;26.70;;;21.20;59.60;;;;;;5041330;28;20499;-49
2022/03/24 09:32:27;;;;;;;49.90;25.47;;;21.30;59.50;;;;;;5024059;28;20476;-48
2022/03/24 09:34:55;;;;;;;51.23;25.23;;;;;;;;;;4987230;28;20478;-48
2022/03/24 09:37:22;;;;;;;44.43;25.53;;;21.50;59.40;;;;;;5016620;28;20496;-48
2022/03/24 09:39:50;;;;;;;57.67;29.17;;;21.70;59.00;;;;;;5025163;28;20494;-48
2022/03/24 09:42:18;;;;;;;89.67;30.77;;;21.90;56.80;;;;;;4986086;28;20498;-50
2022/03/24 09:44:46;;;;;;;44.50;28.70;;;22.00;57.00;;;;;;5029796;28;20900;-49
2022/03/24 09:47:14;;;;;;;40.93;26.87;;;22.10;56.00;;;;;;5002748;28;20996;-48
2022/03/24 09:49:42;;;;;;;45.30;25.80;;;22.20;57.80;;;;;;4975101;28;20545;-48
2022/03/24 09:52:11;;;;;;;44.80;27.23;;;22.30;57.30;;;;;;5048841;28;20483;-54
2022/03/24 09:54:38;;;;;;;41.70;25.03;;;22.40;56.50;;;;;;4998326;28;21296;-48
2022/03/24 09:57:06;;;;;;;43.30;25.80;;;22.50;55.50;;;;;;5040766;28;20481;-48
2022/03/24 09:59:33;;;;;;;42.60;26.57;;;22.40;54.40;;;;;;4985071;28;20510;-48
2022/03/24 10:02:03;;;;;;;43.03;27.53;;;22.40;55.70;;;;;;5014273;28;20870;-48
2022/03/24 10:04:45;;;;;;;44.53;25.90;;;22.50;56.20;;;;;;5014191;28;20944;-48
2022/03/24 10:07:11;;;;;;;35.57;24.40;;;22.60;56.40;;;;;;4968187;28;20749;-48
2022/03/24 10:09:40;;;;;;;61.37;24.87;;;22.60;52.00;;;;;;5007259;28;20499;-48
2022/03/24 10:12:08;;;;;;;45.17;25.87;;;22.50;52.30;;;;;;4997345;28;21198;-48
2022/03/24 10:14:36;;;;;;;35.70;24.93;;;22.30;55.00;;;;;;4998196;28;20479;-48
2022/03/24 10:17:08;;;;;;;42.83;23.80;;;22.40;54.70;;;;;;5012987;28;20481;-48
2022/03/24 10:19:36;;;;;;;41.90;24.30;;;22.50;52.30;;;;;;5017649;28;20572;-49
2022/03/24 10:22:10;;;;;;;42.00;27.07;;;22.50;52.30;;;;;;5003190;28;20644;-48
2022/03/24 10:24:41;;;;;;;38.10;25.93;;;22.60;53.50;;;;;;5014811;28;21146;-48
2022/03/24 10:27:11;;;;;;;45.57;26.23;;;22.60;52.00;;;;;;5021523;28;20485;-49
2022/03/24 10:29:38;;;;;;;44.47;26.13;;;22.80;54.90;;;;;;4979940;28;20489;-48
2022/03/24 10:32:10;;;;;;;41.40;27.33;;;22.90;54.30;;;;;;5008688;28;20914;-48
2022/03/24 10:34:41;;;;;;;47.77;26.53;;;23.10;54.00;;;;;;5029541;28;21013;-48
2022/03/24 10:37:12;;;;;;;40.43;26.70;;;23.30;52.80;;;;;;5034557;28;20482;-48
2022/03/24 10:39:40;;;;;;;42.47;27.30;;;23.50;52.90;;;;;;5046951;28;20470;-48
2022/03/24 10:42:12;;;;;;;44.70;26.10;;;23.70;54.10;;;;;;5044546;28;20502;-48
2022/03/24 10:45:14;;;;;;;49.97;30.10;;;23.90;53.20;;;;;;5045477;28;20565;-48
2022/03/24 10:47:46;;;;;;;39.93;25.90;;;24.00;52.30;;;;;;5051760;28;20477;-48
2022/03/24 10:50:23;;;;;;;45.67;27.63;;;24.10;50.60;;;;;;5051321;28;21187;-49
2022/03/24 10:52:51;;;;;;;46.73;24.90;;;24.20;51.70;;;;;;5058194;28;20503;-49
2022/03/24 10:55:32;;;;;;;37.50;26.03;;;24.30;52.40;;;;;;5044507;28;20477;-50
2022/03/24 10:58:00;;;;;;;37.43;22.47;;;24.30;49.20;;;;;;5055521;28;20475;-48
2022/03/24 11:00:27;;;;;;;37.70;24.37;;;24.20;48.10;;;;;;5044335;28;20486;-48
2022/03/24 11:02:55;;;;;;;34.27;20.60;;;24.10;51.50;;;;;;5063409;28;20488;-48
2022/03/24 11:05:23;;;;;;;33.30;21.47;;;24.10;50.00;;;;;;5058332;28;20807;-49
2022/03/24 11:07:53;;;;;;;43.33;24.43;;;24.10;50.70;;;;;;5068103;28;20799;-48
2022/03/24 11:10:21;;;;;;;33.83;23.43;;;24.10;49.80;;;;;;5064021;28;21043;-48
2022/03/24 11:12:50;;;;;;;34.20;21.40;;;24.00;49.80;;;;;;5036986;28;20928;-48
2022/03/24 11:15:17;;;;;;;33.57;22.27;;;24.20;50.90;;;;;;5063334;28;20963;-48
2022/03/24 11:17:45;;;;;;;36.93;22.50;;;24.40;51.40;;;;;;5068870;28;20751;-48
2022/03/24 11:20:25;;;;;;;36.87;23.83;;;24.40;51.90;;;;;;5067384;28;20839;-49
2022/03/24 11:22:56;;;;;;;41.77;23.70;;;24.60;48.60;;;;;;5065845;28;20538;-49
2022/03/24 11:25:23;;;;;;;45.50;24.53;;;24.30;48.00;;;;;;5057416;28;20966;-48
2022/03/24 11:27:53;;;;;;;38.20;23.40;;;24.10;47.70;;;;;;5062694;28;20486;-49
2022/03/24 11:30:21;;;;;;;36.20;23.23;;;24.10;48.40;;;;;;5068106;28;20469;-48
2022/03/24 11:32:50;;;;;;;35.73;23.17;;;24.20;48.40;;;;;;5036833;28;20520;-48
2022/03/24 11:35:18;;;;;;;36.83;21.13;;;24.10;46.30;;;;;;5065568;28;21010;-48
2022/03/24 11:37:45;;;;;;;39.63;22.57;;;24.10;47.10;;;;;;5066827;28;20854;-48
2022/03/24 11:40:14;;;;;;;37.63;23.67;;;23.80;46.20;;;;;;5064441;28;20490;-48
2022/03/24 11:42:47;;;;;;;34.43;23.93;;;23.90;47.30;;;;;;5064196;28;20512;-48
2022/03/24 11:45:26;;;;;;;37.70;24.00;;;23.80;47.00;;;;;;5064222;28;20477;-49
2022/03/24 11:48:01;;;;;;;30.93;22.10;;;23.50;47.00;;;;;;5068075;28;20553;-48
2022/03/24 11:50:41;;;;;;;32.87;22.20;;;23.50;46.00;;;;;;5057707;28;20980;-47
2022/03/24 11:53:15;;;;;;;35.63;23.10;;;23.50;46.80;;;;;;5065165;28;20481;-48
2022/03/24 11:56:19;;;;;;;34.80;20.70;;;23.60;46.60;;;;;;5067321;28;20478;-48
2022/03/24 11:59:19;;;;;;;34.60;21.87;;;23.90;47.80;;;;;;5066196;28;20863;-48
2022/03/24 12:01:46;;;;;;;47.07;24.57;;;24.00;47.20;;;;;;5061900;28;20922;-48
2022/03/24 12:04:14;;;;;;;33.57;21.97;;;24.10;44.70;;;;;;5062684;28;20482;-48
2022/03/24 12:06:53;;;;;;;33.43;22.80;;;23.70;45.00;;;;;;5063764;28;20489;-48
2022/03/24 12:09:23;;;;;;;52.13;22.83;;;23.70;48.10;;;;;;5063273;28;20802;-49
2022/03/24 12:11:53;;;;;;;32.30;21.70;;;23.80;45.60;;;;;;5063341;28;20477;-48
2022/03/24 12:14:29;;;;;;;30.90;20.97;;;24.00;47.90;;;;;;5063724;28;20848;-49
2022/03/24 12:16:56;;;;;;;31.93;22.10;;;24.10;47.20;;;;;;5054401;28;20481;-49
2022/03/24 12:19:44;;;;;;;33.13;22.27;;;24.00;44.70;;;;;;5064845;28;21546;-49
2022/03/24 12:22:44;;;;;;;34.77;22.33;;;23.80;46.50;;;;;;5067481;28;20478;-48
2022/03/24 12:25:25;;;;;;;33.27;21.47;;;24.00;48.00;;;;;;5056609;28;20486;-48
2022/03/24 12:28:21;;;;;;;34.37;22.37;;;24.40;48.30;;;;;;5063254;28;20478;-48
2022/03/24 12:30:53;;;;;;;33.13;21.40;;;24.50;47.00;;;;;;5056870;28;21022;-48
2022/03/24 12:33:34;;;;;;;36.10;21.20;;;24.70;46.90;;;;;;5060994;28;20487;-48
2022/03/24 12:36:03;;;;;;;27.77;19.10;;;24.60;45.40;;;;;;5061491;28;20473;-48
2022/03/24 12:38:41;;;;;;;29.07;21.13;;;24.70;44.70;;;;;;5064552;28;20784;-48
2022/03/24 12:41:24;;;;;;;29.00;22.17;;;24.30;42.00;;;;;;5064888;28;20509;-55